sensor_id;sensor_type;location;lat;lon;timestamp;pressure;altitude;pressure_sealevel;temperature;humidity
45078;BME280;60508;42.622;25.416;2023-06-04T00:00:03;96969.28;;;17.78;69.54
45078;BME280;60508;42.622;25.416;2023-06-04T00:02:32;96961.16;;;17.78;70.30
45078;BME280;60508;42.622;25.416;2023-06-04T00:04:59;96972.00;;;17.78;70.71
45078;BME280;60508;42.622;25.416;2023-06-04T00:07:33;96975.00;;;17.76;70.63
45078;BME280;60508;42.622;25.416;2023-06-04T00:09:59;96962.91;;;17.63;70.81
45078;BME280;60508;42.622;25.416;2023-06-04T00:12:26;96969.44;;;17.62;70.67
45078;BME280;60508;42.622;25.416;2023-06-04T00:14:53;96972.44;;;17.61;70.53
45078;BME280;60508;42.622;25.416;2023-06-04T00:17:19;96972.09;;;17.67;70.08
45078;BME280;60508;42.622;25.416;2023-06-04T00:19:45;96972.84;;;17.78;69.27
45078;BME280;60508;42.622;25.416;2023-06-04T00:22:12;96983.72;;;17.78;69.23
45078;BME280;60508;42.622;25.416;2023-06-04T00:24:39;96976.97;;;17.70;69.29
45078;BME280;60508;42.622;25.416;2023-06-04T00:27:09;96979.19;;;17.63;70.14
45078;BME280;60508;42.622;25.416;2023-06-04T00:29:44;96981.63;;;17.65;70.86
45078;BME280;60508;42.622;25.416;2023-06-04T00:32:10;96979.41;;;17.72;70.72
45078;BME280;60508;42.622;25.416;2023-06-04T00:34:37;96986.16;;;17.80;70.87
45078;BME280;60508;42.622;25.416;2023-06-04T00:37:03;96977.44;;;17.83;70.36
45078;BME280;60508;42.622;25.416;2023-06-04T00:39:39;96968.13;;;17.89;70.60
45078;BME280;60508;42.622;25.416;2023-06-04T00:42:05;96963.75;;;17.93;71.44
45078;BME280;60508;42.622;25.416;2023-06-04T00:44:32;96969.38;;;18.02;70.98
45078;BME280;60508;42.622;25.416;2023-06-04T00:47:00;96966.31;;;18.09;71.71
45078;BME280;60508;42.622;25.416;2023-06-04T00:49:26;96965.72;;;18.17;68.99
45078;BME280;60508;42.622;25.416;2023-06-04T00:51:53;96969.63;;;18.05;68.65
45078;BME280;60508;42.622;25.416;2023-06-04T00:54:19;96965.81;;;18.06;68.83
45078;BME280;60508;42.622;25.416;2023-06-04T00:56:47;96959.00;;;18.09;69.88
45078;BME280;60508;42.622;25.416;2023-06-04T00:59:14;96970.91;;;18.13;70.75
45078;BME280;60508;42.622;25.416;2023-06-04T01:01:51;96965.69;;;17.93;70.79
45078;BME280;60508;42.622;25.416;2023-06-04T01:04:42;96958.78;;;18.00;71.88
45078;BME280;60508;42.622;25.416;2023-06-04T01:07:13;96965.13;;;17.96;73.03
45078;BME280;60508;42.622;25.416;2023-06-04T01:09:40;96963.19;;;17.96;73.67
45078;BME280;60508;42.622;25.416;2023-06-04T01:12:07;96964.78;;;17.97;74.26
45078;BME280;60508;42.622;25.416;2023-06-04T01:14:34;96970.00;;;17.94;74.80
45078;BME280;60508;42.622;25.416;2023-06-04T01:20:04;96974.72;;;17.78;76.14
45078;BME280;60508;42.622;25.416;2023-06-04T01:25:25;96962.31;;;17.72;77.33
45078;BME280;60508;42.622;25.416;2023-06-04T01:27:56;96964.47;;;17.69;76.65
45078;BME280;60508;42.622;25.416;2023-06-04T01:30:34;96978.84;;;17.75;76.63
45078;BME280;60508;42.622;25.416;2023-06-04T01:33:02;96971.22;;;17.77;76.91
45078;BME280;60508;42.622;25.416;2023-06-04T01:35:29;96975.84;;;17.77;77.21
45078;BME280;60508;42.622;25.416;2023-06-04T01:37:59;96958.47;;;17.73;77.02
45078;BME280;60508;42.622;25.416;2023-06-04T01:40:26;96970.66;;;17.80;76.88
45078;BME280;60508;42.622;25.416;2023-06-04T01:42:53;96970.88;;;17.84;76.67
45078;BME280;60508;42.622;25.416;2023-06-04T01:45:24;96974.44;;;17.79;77.04
45078;BME280;60508;42.622;25.416;2023-06-04T01:47:51;96974.22;;;17.76;76.85
45078;BME280;60508;42.622;25.416;2023-06-04T01:50:25;96980.72;;;17.75;77.12
45078;BME280;60508;42.622;25.416;2023-06-04T01:52:53;96982.13;;;17.72;76.76
45078;BME280;60508;42.622;25.416;2023-06-04T01:55:20;96990.75;;;17.79;76.56
45078;BME280;60508;42.622;25.416;2023-06-04T01:57:47;96981.28;;;17.77;76.58
45078;BME280;60508;42.622;25.416;2023-06-04T02:00:14;96982.19;;;17.67;78.21
45078;BME280;60508;42.622;25.416;2023-06-04T02:02:43;96984.09;;;17.61;78.19
45078;BME280;60508;42.622;25.416;2023-06-04T02:05:10;96988.88;;;17.40;78.95
45078;BME280;60508;42.622;25.416;2023-06-04T02:07:39;96982.94;;;17.38;80.13
45078;BME280;60508;42.622;25.416;2023-06-04T02:10:18;96975.19;;;17.16;80.12
45078;BME280;60508;42.622;25.416;2023-06-04T02:12:57;96981.41;;;17.22;79.71
45078;BME280;60508;42.622;25.416;2023-06-04T02:15:26;96989.75;;;17.30;79.16
45078;BME280;60508;42.622;25.416;2023-06-04T02:17:58;96981.38;;;17.27;78.55
45078;BME280;60508;42.622;25.416;2023-06-04T02:20:33;96990.16;;;17.13;79.71
45078;BME280;60508;42.622;25.416;2023-06-04T02:23:00;96984.97;;;17.17;79.99
45078;BME280;60508;42.622;25.416;2023-06-04T02:25:26;96997.50;;;17.08;80.14
45078;BME280;60508;42.622;25.416;2023-06-04T02:27:53;96998.59;;;17.12;80.34
45078;BME280;60508;42.622;25.416;2023-06-04T02:30:19;96993.66;;;17.14;78.24
45078;BME280;60508;42.622;25.416;2023-06-04T02:32:47;97000.38;;;17.27;77.93
45078;BME280;60508;42.622;25.416;2023-06-04T02:35:17;97000.91;;;17.29;77.86
45078;BME280;60508;42.622;25.416;2023-06-04T02:37:54;96997.44;;;17.23;78.37
45078;BME280;60508;42.622;25.416;2023-06-04T02:40:22;97000.03;;;17.39;79.14
45078;BME280;60508;42.622;25.416;2023-06-04T02:42:49;97011.13;;;17.47;78.64
45078;BME280;60508;42.622;25.416;2023-06-04T02:45:15;97004.88;;;17.47;76.56
45078;BME280;60508;42.622;25.416;2023-06-04T02:47:51;97012.00;;;17.38;76.87
45078;BME280;60508;42.622;25.416;2023-06-04T02:50:17;97007.34;;;17.43;76.72
45078;BME280;60508;42.622;25.416;2023-06-04T02:52:44;97015.81;;;17.37;77.05
45078;BME280;60508;42.622;25.416;2023-06-04T02:55:11;97020.91;;;17.43;77.58
45078;BME280;60508;42.622;25.416;2023-06-04T02:57:44;97017.59;;;17.51;78.55
45078;BME280;60508;42.622;25.416;2023-06-04T03:00:12;97019.47;;;17.56;78.09
45078;BME280;60508;42.622;25.416;2023-06-04T03:02:44;97017.84;;;17.55;78.13
45078;BME280;60508;42.622;25.416;2023-06-04T03:05:13;97027.81;;;17.65;77.32
45078;BME280;60508;42.622;25.416;2023-06-04T03:07:42;97023.00;;;17.57;76.13
45078;BME280;60508;42.622;25.416;2023-06-04T03:10:17;97025.44;;;17.58;75.90
45078;BME280;60508;42.622;25.416;2023-06-04T03:12:44;97027.59;;;17.61;76.46
45078;BME280;60508;42.622;25.416;2023-06-04T03:15:11;97033.53;;;17.63;77.47
45078;BME280;60508;42.622;25.416;2023-06-04T03:17:45;97025.09;;;17.65;78.20
45078;BME280;60508;42.622;25.416;2023-06-04T03:20:12;97033.19;;;17.75;77.52
45078;BME280;60508;42.622;25.416;2023-06-04T03:22:39;97038.06;;;17.78;77.19
45078;BME280;60508;42.622;25.416;2023-06-04T03:25:14;97036.94;;;17.90;77.33
45078;BME280;60508;42.622;25.416;2023-06-04T03:27:41;97041.78;;;17.93;79.25
45078;BME280;60508;42.622;25.416;2023-06-04T03:30:08;97035.88;;;17.80;79.15
45078;BME280;60508;42.622;25.416;2023-06-04T03:32:47;97040.28;;;17.71;79.71
45078;BME280;60508;42.622;25.416;2023-06-04T03:35:14;97042.16;;;17.76;79.96
45078;BME280;60508;42.622;25.416;2023-06-04T03:37:49;97041.34;;;17.75;78.95
45078;BME280;60508;42.622;25.416;2023-06-04T03:40:16;97038.13;;;17.73;81.14
45078;BME280;60508;42.622;25.416;2023-06-04T03:42:45;97037.28;;;17.73;81.43
45078;BME280;60508;42.622;25.416;2023-06-04T03:45:12;97039.56;;;17.60;81.37
45078;BME280;60508;42.622;25.416;2023-06-04T03:47:39;97034.09;;;17.65;80.79
45078;BME280;60508;42.622;25.416;2023-06-04T03:50:18;97043.59;;;17.63;80.87
45078;BME280;60508;42.622;25.416;2023-06-04T03:52:44;97040.94;;;17.58;80.94
45078;BME280;60508;42.622;25.416;2023-06-04T03:55:11;97050.72;;;17.59;80.89
45078;BME280;60508;42.622;25.416;2023-06-04T03:57:47;97047.94;;;17.64;81.30
45078;BME280;60508;42.622;25.416;2023-06-04T04:00:15;97034.94;;;17.61;81.26
45078;BME280;60508;42.622;25.416;2023-06-04T04:02:45;97047.63;;;17.70;82.03
45078;BME280;60508;42.622;25.416;2023-06-04T04:05:20;97055.13;;;17.84;81.33
45078;BME280;60508;42.622;25.416;2023-06-04T04:07:48;97049.13;;;17.92;80.58
45078;BME280;60508;42.622;25.416;2023-06-04T04:10:25;97059.38;;;18.00;80.40
45078;BME280;60508;42.622;25.416;2023-06-04T04:12:52;97059.94;;;18.02;81.88
45078;BME280;60508;42.622;25.416;2023-06-04T04:15:21;97056.94;;;17.99;82.41
45078;BME280;60508;42.622;25.416;2023-06-04T04:17:57;97057.22;;;17.97;82.11
45078;BME280;60508;42.622;25.416;2023-06-04T04:20:25;97061.81;;;18.02;82.11
45078;BME280;60508;42.622;25.416;2023-06-04T04:22:57;97063.97;;;18.05;82.57
45078;BME280;60508;42.622;25.416;2023-06-04T04:25:33;97064.59;;;17.97;82.38
45078;BME280;60508;42.622;25.416;2023-06-04T04:28:00;97062.94;;;18.01;82.10
45078;BME280;60508;42.622;25.416;2023-06-04T04:30:29;97066.44;;;18.01;81.65
45078;BME280;60508;42.622;25.416;2023-06-04T04:33:03;97073.53;;;18.02;81.31
45078;BME280;60508;42.622;25.416;2023-06-04T04:35:45;97070.53;;;18.04;80.76
45078;BME280;60508;42.622;25.416;2023-06-04T04:38:17;97071.88;;;18.01;80.43
45078;BME280;60508;42.622;25.416;2023-06-04T04:40:50;97081.13;;;18.05;80.74
45078;BME280;60508;42.622;25.416;2023-06-04T04:43:34;97080.78;;;18.12;80.83
45078;BME280;60508;42.622;25.416;2023-06-04T04:46:11;97089.63;;;18.28;80.14
45078;BME280;60508;42.622;25.416;2023-06-04T04:48:38;97081.97;;;18.30;81.38
45078;BME280;60508;42.622;25.416;2023-06-04T04:51:14;97082.72;;;18.36;82.52
45078;BME280;60508;42.622;25.416;2023-06-04T04:53:41;97084.31;;;18.42;82.81
45078;BME280;60508;42.622;25.416;2023-06-04T04:56:09;97087.25;;;18.46;83.02
45078;BME280;60508;42.622;25.416;2023-06-04T04:58:40;97096.22;;;18.51;82.54
45078;BME280;60508;42.622;25.416;2023-06-04T05:01:07;97086.31;;;18.60;81.79
45078;BME280;60508;42.622;25.416;2023-06-04T05:03:33;97092.75;;;18.70;80.74
45078;BME280;60508;42.622;25.416;2023-06-04T05:06:00;97076.97;;;18.67;80.57
45078;BME280;60508;42.622;25.416;2023-06-04T05:08:34;97091.53;;;18.86;80.59
45078;BME280;60508;42.622;25.416;2023-06-04T05:11:01;97105.53;;;18.98;81.09
45078;BME280;60508;42.622;25.416;2023-06-04T05:13:28;97085.19;;;18.91;80.11
45078;BME280;60508;42.622;25.416;2023-06-04T05:16:00;97107.69;;;19.02;79.76
45078;BME280;60508;42.622;25.416;2023-06-04T05:18:40;97106.94;;;18.96;80.12
45078;BME280;60508;42.622;25.416;2023-06-04T05:21:14;97114.28;;;18.95;80.49
45078;BME280;60508;42.622;25.416;2023-06-04T05:23:48;97119.28;;;18.88;80.69
45078;BME280;60508;42.622;25.416;2023-06-04T05:26:16;97122.28;;;18.87;80.80
45078;BME280;60508;42.622;25.416;2023-06-04T05:28:51;97123.41;;;18.80;81.03
45078;BME280;60508;42.622;25.416;2023-06-04T05:31:18;97122.88;;;18.78;80.94
45078;BME280;60508;42.622;25.416;2023-06-04T05:33:45;97129.94;;;18.79;81.08
45078;BME280;60508;42.622;25.416;2023-06-04T05:36:21;97134.56;;;18.79;81.04
45078;BME280;60508;42.622;25.416;2023-06-04T05:38:54;97125.84;;;18.82;81.41
45078;BME280;60508;42.622;25.416;2023-06-04T05:41:32;97142.97;;;18.88;80.43
45078;BME280;60508;42.622;25.416;2023-06-04T05:44:02;97134.28;;;18.80;80.20
45078;BME280;60508;42.622;25.416;2023-06-04T05:46:29;97149.53;;;18.82;80.50
45078;BME280;60508;42.622;25.416;2023-06-04T05:48:55;97138.16;;;18.74;80.51
45078;BME280;60508;42.622;25.416;2023-06-04T05:51:23;97140.69;;;18.66;79.48
45078;BME280;60508;42.622;25.416;2023-06-04T05:53:50;97143.94;;;18.68;79.38
45078;BME280;60508;42.622;25.416;2023-06-04T05:56:26;97155.13;;;18.66;79.36
45078;BME280;60508;42.622;25.416;2023-06-04T05:58:55;97160.59;;;18.61;80.45
45078;BME280;60508;42.622;25.416;2023-06-04T06:01:24;97154.38;;;18.60;79.85
45078;BME280;60508;42.622;25.416;2023-06-04T06:03:51;97157.88;;;18.61;80.08
45078;BME280;60508;42.622;25.416;2023-06-04T06:06:19;97149.53;;;18.52;80.64
45078;BME280;60508;42.622;25.416;2023-06-04T06:08:47;97156.53;;;18.58;81.21
45078;BME280;60508;42.622;25.416;2023-06-04T06:11:20;97168.78;;;18.61;82.03
45078;BME280;60508;42.622;25.416;2023-06-04T06:13:48;97167.63;;;18.67;81.54
45078;BME280;60508;42.622;25.416;2023-06-04T06:16:16;97170.59;;;18.71;81.47
45078;BME280;60508;42.622;25.416;2023-06-04T06:18:44;97166.22;;;18.70;80.82
45078;BME280;60508;42.622;25.416;2023-06-04T06:21:11;97164.91;;;18.67;80.80
45078;BME280;60508;42.622;25.416;2023-06-04T06:23:47;97150.81;;;18.60;80.90
45078;BME280;60508;42.622;25.416;2023-06-04T06:26:14;97172.50;;;18.70;80.44
45078;BME280;60508;42.622;25.416;2023-06-04T06:28:46;97166.56;;;18.63;80.78
45078;BME280;60508;42.622;25.416;2023-06-04T06:31:13;97170.13;;;18.64;80.94
45078;BME280;60508;42.622;25.416;2023-06-04T06:33:40;97171.81;;;18.54;79.52
45078;BME280;60508;42.622;25.416;2023-06-04T06:36:09;97183.03;;;18.48;78.70
45078;BME280;60508;42.622;25.416;2023-06-04T06:38:43;97163.72;;;18.44;79.38
45078;BME280;60508;42.622;25.416;2023-06-04T06:41:10;97184.03;;;18.57;79.99
45078;BME280;60508;42.622;25.416;2023-06-04T06:43:36;97176.69;;;18.57;80.65
45078;BME280;60508;42.622;25.416;2023-06-04T06:46:03;97183.47;;;18.60;81.73
45078;BME280;60508;42.622;25.416;2023-06-04T06:48:29;97184.03;;;18.57;83.13
45078;BME280;60508;42.622;25.416;2023-06-04T06:50:56;97188.44;;;18.53;84.38
45078;BME280;60508;42.622;25.416;2023-06-04T06:53:22;97194.63;;;18.64;84.71
45078;BME280;60508;42.622;25.416;2023-06-04T06:55:49;97187.81;;;18.61;84.69
45078;BME280;60508;42.622;25.416;2023-06-04T06:58:23;97200.25;;;18.72;84.74
45078;BME280;60508;42.622;25.416;2023-06-04T07:00:50;97195.31;;;18.74;84.72
45078;BME280;60508;42.622;25.416;2023-06-04T07:03:17;97201.53;;;18.85;83.96
45078;BME280;60508;42.622;25.416;2023-06-04T07:05:43;97198.22;;;18.88;83.95
45078;BME280;60508;42.622;25.416;2023-06-04T07:08:10;97203.44;;;18.85;83.89
45078;BME280;60508;42.622;25.416;2023-06-04T07:10:44;97206.41;;;18.83;84.12
45078;BME280;60508;42.622;25.416;2023-06-04T07:13:11;97196.38;;;18.84;83.35
45078;BME280;60508;42.622;25.416;2023-06-04T07:15:37;97214.28;;;18.90;83.09
45078;BME280;60508;42.622;25.416;2023-06-04T07:18:04;97212.31;;;18.95;83.68
45078;BME280;60508;42.622;25.416;2023-06-04T07:20:39;97200.09;;;18.93;83.47
45078;BME280;60508;42.622;25.416;2023-06-04T07:23:06;97220.09;;;19.07;83.44
45078;BME280;60508;42.622;25.416;2023-06-04T07:25:33;97222.00;;;19.07;82.24
45078;BME280;60508;42.622;25.416;2023-06-04T07:28:07;97229.59;;;19.10;81.05
45078;BME280;60508;42.622;25.416;2023-06-04T07:30:34;97232.03;;;19.11;81.46
45078;BME280;60508;42.622;25.416;2023-06-04T07:33:02;97224.09;;;19.15;81.39
45078;BME280;60508;42.622;25.416;2023-06-04T07:35:28;97243.66;;;19.22;81.48
45078;BME280;60508;42.622;25.416;2023-06-04T07:37:55;97243.88;;;19.26;81.33
45078;BME280;60508;42.622;25.416;2023-06-04T07:40:22;97241.97;;;19.26;81.20
45078;BME280;60508;42.622;25.416;2023-06-04T07:42:49;97244.44;;;19.23;80.85
45078;BME280;60508;42.622;25.416;2023-06-04T07:45:24;97242.31;;;19.20;80.35
45078;BME280;60508;42.622;25.416;2023-06-04T07:47:50;97247.94;;;19.28;79.61
45078;BME280;60508;42.622;25.416;2023-06-04T07:50:17;97247.94;;;19.28;78.43
45078;BME280;60508;42.622;25.416;2023-06-04T07:52:43;97258.88;;;19.23;78.32
45078;BME280;60508;42.622;25.416;2023-06-04T07:55:18;97259.88;;;19.32;78.62
45078;BME280;60508;42.622;25.416;2023-06-04T07:57:45;97256.28;;;19.37;78.31
45078;BME280;60508;42.622;25.416;2023-06-04T08:00:12;97267.06;;;19.47;78.32
45078;BME280;60508;42.622;25.416;2023-06-04T08:02:47;97265.06;;;19.58;77.78
45078;BME280;60508;42.622;25.416;2023-06-04T08:05:15;97265.19;;;19.72;77.76
45078;BME280;60508;42.622;25.416;2023-06-04T08:07:41;97272.69;;;19.85;77.22
45078;BME280;60508;42.622;25.416;2023-06-04T08:10:08;97269.78;;;20.01;77.82
45078;BME280;60508;42.622;25.416;2023-06-04T08:12:35;97280.53;;;20.11;77.96
45078;BME280;60508;42.622;25.416;2023-06-04T08:15:02;97278.78;;;20.20;78.13
45078;BME280;60508;42.622;25.416;2023-06-04T08:17:42;97279.22;;;20.28;77.69
45078;BME280;60508;42.622;25.416;2023-06-04T08:20:29;97272.38;;;20.30;77.05
45078;BME280;60508;42.622;25.416;2023-06-04T08:23:19;97271.78;;;20.33;76.93
45078;BME280;60508;42.622;25.416;2023-06-04T08:26:06;97254.88;;;20.31;77.19
45078;BME280;60508;42.622;25.416;2023-06-04T08:29:02;97271.72;;;20.57;76.66
45078;BME280;60508;42.622;25.416;2023-06-04T08:31:32;97279.09;;;20.76;76.08
45078;BME280;60508;42.622;25.416;2023-06-04T08:34:06;97266.03;;;20.73;75.37
45078;BME280;60508;42.622;25.416;2023-06-04T08:36:40;97283.97;;;20.79;74.52
45078;BME280;60508;42.622;25.416;2023-06-04T08:39:08;97279.50;;;20.83;73.89
45078;BME280;60508;42.622;25.416;2023-06-04T08:41:41;97285.94;;;20.92;73.99
45078;BME280;60508;42.622;25.416;2023-06-04T08:44:09;97283.41;;;20.96;73.50
45078;BME280;60508;42.622;25.416;2023-06-04T08:46:38;97286.56;;;21.03;72.94
45078;BME280;60508;42.622;25.416;2023-06-04T08:49:06;97286.06;;;21.01;73.57
45078;BME280;60508;42.622;25.416;2023-06-04T08:51:35;97293.78;;;21.13;73.25
45078;BME280;60508;42.622;25.416;2023-06-04T08:54:07;97293.50;;;21.14;72.20
45078;BME280;60508;42.622;25.416;2023-06-04T08:56:43;97293.06;;;21.07;72.87
45078;BME280;60508;42.622;25.416;2023-06-04T08:59:10;97293.72;;;20.99;73.56
45078;BME280;60508;42.622;25.416;2023-06-04T09:01:37;97293.72;;;20.99;74.17
45078;BME280;60508;42.622;25.416;2023-06-04T09:04:05;97296.94;;;21.20;72.71
45078;BME280;60508;42.622;25.416;2023-06-04T09:06:33;97296.16;;;21.33;72.58
45078;BME280;60508;42.622;25.416;2023-06-04T09:09:03;97297.31;;;21.46;71.03
45078;BME280;60508;42.622;25.416;2023-06-04T09:11:36;97298.47;;;21.59;69.59
45078;BME280;60508;42.622;25.416;2023-06-04T09:14:14;97298.66;;;21.63;69.10
45078;BME280;60508;42.622;25.416;2023-06-04T09:16:47;97316.09;;;21.67;68.55
45078;BME280;60508;42.622;25.416;2023-06-04T09:19:15;97305.56;;;21.41;68.56
45078;BME280;60508;42.622;25.416;2023-06-04T09:21:55;97314.28;;;21.29;69.41
45078;BME280;60508;42.622;25.416;2023-06-04T09:24:45;97321.72;;;21.10;70.97
45078;BME280;60508;42.622;25.416;2023-06-04T09:27:17;97325.00;;;20.74;71.66
45078;BME280;60508;42.622;25.416;2023-06-04T09:29:57;97320.34;;;19.64;73.54
45078;BME280;60508;42.622;25.416;2023-06-04T09:32:32;97316.69;;;19.74;75.07
45078;BME280;60508;42.622;25.416;2023-06-04T09:35:18;97321.69;;;20.15;73.16
45078;BME280;60508;42.622;25.416;2023-06-04T09:37:52;97319.00;;;20.34;72.07
45078;BME280;60508;42.622;25.416;2023-06-04T09:40:19;97318.91;;;20.39;72.01
45078;BME280;60508;42.622;25.416;2023-06-04T09:42:55;97313.75;;;20.37;72.21
45078;BME280;60508;42.622;25.416;2023-06-04T09:45:33;97311.97;;;20.28;72.08
45078;BME280;60508;42.622;25.416;2023-06-04T09:48:02;97319.31;;;20.08;73.24
45078;BME280;60508;42.622;25.416;2023-06-04T09:50:33;97310.81;;;20.34;72.49
45078;BME280;60508;42.622;25.416;2023-06-04T09:53:21;97318.94;;;20.58;71.66
45078;BME280;60508;42.622;25.416;2023-06-04T09:56:04;97319.47;;;20.79;71.42
45078;BME280;60508;42.622;25.416;2023-06-04T09:58:32;97326.28;;;20.82;69.61
45078;BME280;60508;42.622;25.416;2023-06-04T10:01:01;97321.53;;;20.87;68.23
45078;BME280;60508;42.622;25.416;2023-06-04T10:03:36;97325.25;;;21.10;67.43
45078;BME280;60508;42.622;25.416;2023-06-04T10:06:04;97316.34;;;21.19;69.43
45078;BME280;60508;42.622;25.416;2023-06-04T10:08:32;97310.69;;;21.15;70.54
45078;BME280;60508;42.622;25.416;2023-06-04T10:11:07;97309.25;;;21.37;70.41
45078;BME280;60508;42.622;25.416;2023-06-04T10:13:41;97309.25;;;21.37;69.66
45078;BME280;60508;42.622;25.416;2023-06-04T10:16:11;97310.41;;;21.49;69.41
45078;BME280;60508;42.622;25.416;2023-06-04T10:18:43;97316.00;;;21.72;68.04
45078;BME280;60508;42.622;25.416;2023-06-04T10:21:10;97317.72;;;21.82;69.23
45078;BME280;60508;42.622;25.416;2023-06-04T10:23:39;97322.25;;;21.59;68.96
45078;BME280;60508;42.622;25.416;2023-06-04T10:26:15;97318.03;;;21.33;70.06
45078;BME280;60508;42.622;25.416;2023-06-04T10:28:43;97323.81;;;21.46;69.36
45078;BME280;60508;42.622;25.416;2023-06-04T10:31:10;97311.25;;;21.31;67.21
45078;BME280;60508;42.622;25.416;2023-06-04T10:33:37;97314.47;;;21.66;67.74
45078;BME280;60508;42.622;25.416;2023-06-04T10:36:20;97313.66;;;22.35;64.50
45078;BME280;60508;42.622;25.416;2023-06-04T10:38:49;97317.34;;;22.89;62.98
45078;BME280;60508;42.622;25.416;2023-06-04T10:41:16;97323.81;;;23.07;62.07
45078;BME280;60508;42.622;25.416;2023-06-04T10:43:50;97321.59;;;22.73;61.93
45078;BME280;60508;42.622;25.416;2023-06-04T10:46:20;97313.97;;;22.70;60.72
45078;BME280;60508;42.622;25.416;2023-06-04T10:48:50;97315.75;;;22.52;58.02
45078;BME280;60508;42.622;25.416;2023-06-04T10:51:34;97312.66;;;22.67;57.98
45078;BME280;60508;42.622;25.416;2023-06-04T10:54:22;97309.22;;;22.98;58.59
45078;BME280;60508;42.622;25.416;2023-06-04T10:56:49;97309.22;;;23.43;57.68
45078;BME280;60508;42.622;25.416;2023-06-04T10:59:24;97306.44;;;23.75;56.47
45078;BME280;60508;42.622;25.416;2023-06-04T11:01:51;97298.97;;;23.98;56.29
45078;BME280;60508;42.622;25.416;2023-06-04T11:04:23;97306.28;;;24.20;57.90
45078;BME280;60508;42.622;25.416;2023-06-04T11:07:06;97308.44;;;24.40;54.78
45078;BME280;60508;42.622;25.416;2023-06-04T11:09:36;97299.88;;;24.42;52.94
45078;BME280;60508;42.622;25.416;2023-06-04T11:12:05;97297.78;;;24.39;54.03
45078;BME280;60508;42.622;25.416;2023-06-04T11:14:31;97300.00;;;24.28;53.90
45078;BME280;60508;42.622;25.416;2023-06-04T11:17:11;97290.59;;;24.03;56.13
45078;BME280;60508;42.622;25.416;2023-06-04T11:19:38;97293.56;;;24.24;56.24
45078;BME280;60508;42.622;25.416;2023-06-04T11:22:05;97303.91;;;24.36;53.68
45078;BME280;60508;42.622;25.416;2023-06-04T11:24:32;97296.19;;;24.64;53.98
45078;BME280;60508;42.622;25.416;2023-06-04T11:26:59;97291.81;;;25.07;53.04
45078;BME280;60508;42.622;25.416;2023-06-04T11:29:29;97290.50;;;25.30;51.36
45078;BME280;60508;42.622;25.416;2023-06-04T11:32:02;97296.16;;;25.34;51.84
45078;BME280;60508;42.622;25.416;2023-06-04T11:34:30;97283.72;;;25.28;52.50
45078;BME280;60508;42.622;25.416;2023-06-04T11:37:08;97294.22;;;25.26;53.28
45078;BME280;60508;42.622;25.416;2023-06-04T11:39:44;97295.19;;;25.21;53.62
45078;BME280;60508;42.622;25.416;2023-06-04T11:42:12;97295.84;;;25.09;53.50
45078;BME280;60508;42.622;25.416;2023-06-04T11:44:39;97293.59;;;25.03;53.31
45078;BME280;60508;42.622;25.416;2023-06-04T11:47:11;97294.25;;;25.08;53.49
45078;BME280;60508;42.622;25.416;2023-06-04T11:49:38;97288.91;;;25.12;52.88
45078;BME280;60508;42.622;25.416;2023-06-04T11:52:13;97290.00;;;24.32;53.24
45078;BME280;60508;42.622;25.416;2023-06-04T11:54:39;97285.03;;;24.52;54.87
45078;BME280;60508;42.622;25.416;2023-06-04T11:57:07;97282.78;;;24.89;53.45
45078;BME280;60508;42.622;25.416;2023-06-04T11:59:41;97277.44;;;25.10;53.71
45078;BME280;60508;42.622;25.416;2023-06-04T12:02:08;97283.38;;;25.21;53.07
45078;BME280;60508;42.622;25.416;2023-06-04T12:04:34;97290.16;;;25.41;52.73
45078;BME280;60508;42.622;25.416;2023-06-04T12:07:02;97274.91;;;25.52;52.10
45078;BME280;60508;42.622;25.416;2023-06-04T12:09:36;97280.38;;;25.61;50.55
45078;BME280;60508;42.622;25.416;2023-06-04T12:12:06;97281.44;;;25.39;49.67
45078;BME280;60508;42.622;25.416;2023-06-04T12:14:34;97278.50;;;25.44;51.41
45078;BME280;60508;42.622;25.416;2023-06-04T12:17:09;97275.66;;;25.70;50.54
45078;BME280;60508;42.622;25.416;2023-06-04T12:19:49;97280.31;;;25.78;50.27
45078;BME280;60508;42.622;25.416;2023-06-04T12:22:16;97283.31;;;25.94;50.42
45078;BME280;60508;42.622;25.416;2023-06-04T12:24:53;97272.97;;;25.91;49.31
45078;BME280;60508;42.622;25.416;2023-06-04T12:27:22;97272.09;;;26.08;48.74
45078;BME280;60508;42.622;25.416;2023-06-04T12:30:03;97273.94;;;25.95;48.21
45078;BME280;60508;42.622;25.416;2023-06-04T12:32:39;97273.16;;;26.46;47.62
45078;BME280;60508;42.622;25.416;2023-06-04T12:35:06;97276.47;;;26.30;48.87
45078;BME280;60508;42.622;25.416;2023-06-04T12:37:33;97274.59;;;25.54;49.93
45078;BME280;60508;42.622;25.416;2023-06-04T12:39:59;97273.69;;;25.06;51.34
45078;BME280;60508;42.622;25.416;2023-06-04T12:42:34;97274.06;;;24.69;52.49
45078;BME280;60508;42.622;25.416;2023-06-04T12:45:00;97282.91;;;24.49;51.80
45078;BME280;60508;42.622;25.416;2023-06-04T12:47:27;97285.50;;;24.54;52.00
45078;BME280;60508;42.622;25.416;2023-06-04T12:50:01;97286.50;;;24.67;52.78
45078;BME280;60508;42.622;25.416;2023-06-04T12:52:29;97273.75;;;24.71;52.71
45078;BME280;60508;42.622;25.416;2023-06-04T12:54:56;97284.25;;;24.77;53.10
45078;BME280;60508;42.622;25.416;2023-06-04T12:57:30;97273.09;;;24.65;52.10
45078;BME280;60508;42.622;25.416;2023-06-04T12:59:56;97269.81;;;24.46;52.88
45078;BME280;60508;42.622;25.416;2023-06-04T13:02:24;97275.47;;;24.49;52.43
45078;BME280;60508;42.622;25.416;2023-06-04T13:04:51;97277.75;;;24.47;52.79
45078;BME280;60508;42.622;25.416;2023-06-04T13:07:20;97285.66;;;24.49;53.92
45078;BME280;60508;42.622;25.416;2023-06-04T13:09:47;97275.78;;;24.21;53.21
45078;BME280;60508;42.622;25.416;2023-06-04T13:12:14;97280.59;;;24.07;53.59